Time;durP1;ratioP1;P1;durP2;ratioP2;P2;SDS_P1;SDS_P2;PMS_P1;PMS_P2;Temp;Humidity;BMP_temperature;BMP_pressure;BME280_temperature;BME280_humidity;BME280_pressure;Samples;Min_cycle;Max_cycle;Signal;HPM_P1;HPM_P2
2021/12/28 00:01:31;;;;;;;72.30;38.30;;;;;;;-5.64;100.00;98421.52;102332;1310;68864;-72
2021/12/28 00:03:58;;;;;;;71.60;38.50;;;;;;;-5.63;100.00;98426.70;102335;1316;74436;-71
2021/12/28 00:06:25;;;;;;;72.80;38.70;;;;;;;-5.61;100.00;98424.23;102378;1314;61428;-73
2021/12/28 00:08:52;;;;;;;67.50;36.20;;;;;;;-5.60;100.00;98411.43;102052;1313;61385;-72
2021/12/28 00:11:18;;;;;;;67.10;37.30;;;;;;;-5.60;100.00;98406.77;102318;1310;76173;-72
2021/12/28 00:13:45;;;;;;;72.60;38.70;;;;;;;-5.61;100.00;98406.95;102297;1314;70479;-72
2021/12/28 00:16:28;;;;;;;69.60;36.10;;;;;;;-5.61;100.00;98401.75;102419;1311;74497;-72
2021/12/28 00:18:55;;;;;;;69.50;37.90;;;;;;;-5.62;100.00;98405.58;102369;1313;61370;-71
2021/12/28 00:21:21;;;;;;;70.60;36.20;;;;;;;-5.63;100.00;98404.55;102240;1317;61394;-71
2021/12/28 00:23:48;;;;;;;67.20;36.50;;;;;;;-5.65;100.00;98403.19;102345;1316;76325;-72
2021/12/28 00:26:15;;;;;;;69.30;37.90;;;;;;;-5.67;100.00;98401.11;102324;1310;70418;-71
2021/12/28 00:28:44;;;;;;;65.70;35.20;;;;;;;-5.71;100.00;98406.02;102293;1313;73751;-73
2021/12/28 00:31:13;;;;;;;65.80;35.00;;;;;;;-5.74;100.00;98403.11;102417;1316;61392;-72
2021/12/28 00:33:39;;;;;;;73.10;38.00;;;;;;;-5.78;100.00;98402.80;102363;1310;61279;-72
2021/12/28 00:36:06;;;;;;;67.80;36.70;;;;;;;-5.82;100.00;98403.20;102295;1311;75753;-72
2021/12/28 00:38:34;;;;;;;71.80;37.40;;;;;;;-5.85;100.00;98404.27;102358;1310;69255;-73
2021/12/28 00:41:04;;;;;;;72.70;39.00;;;;;;;-5.89;100.00;98404.13;102360;1315;74500;-72
2021/12/28 00:43:32;;;;;;;63.10;34.90;;;;;;;-5.92;100.00;98409.20;102302;1310;61335;-72
2021/12/28 00:45:59;;;;;;;71.00;37.10;;;;;;;-5.95;100.00;98410.98;102377;1311;62095;-72
2021/12/28 00:48:26;;;;;;;69.40;37.00;;;;;;;-5.97;100.00;98410.14;102325;1310;74495;-72
2021/12/28 00:50:54;;;;;;;67.30;36.60;;;;;;;-6.01;100.00;98412.08;102364;1310;69930;-72
2021/12/28 00:53:21;;;;;;;68.30;36.20;;;;;;;-6.04;100.00;98413.48;102333;1310;74571;-71
2021/12/28 00:55:48;;;;;;;72.80;36.30;;;;;;;-6.07;100.00;98417.32;102316;1314;62655;-71
2021/12/28 00:58:15;;;;;;;71.40;38.40;;;;;;;-6.08;100.00;98414.23;102328;1317;62253;-71
2021/12/28 01:00:42;;;;;;;75.10;37.80;;;;;;;-6.10;100.00;98410.44;101068;1313;1704001;-72
2021/12/28 01:03:10;;;;;;;66.10;35.60;;;;;;;-6.12;100.00;98411.50;102134;1317;69315;-71
2021/12/28 01:05:38;;;;;;;66.60;35.30;;;;;;;-6.13;100.00;98411.34;102401;1318;72230;-74
2021/12/28 01:08:06;;;;;;;62.00;34.70;;;;;;;-6.13;100.00;98410.98;102341;1310;61334;-71
2021/12/28 01:10:38;;;;;;;68.60;35.80;;;;;;;-6.14;100.00;98410.29;102285;1314;61638;-72
2021/12/28 01:13:05;;;;;;;72.60;37.10;;;;;;;-6.15;100.00;98407.89;102411;1316;76449;-71
2021/12/28 01:15:32;;;;;;;65.50;36.10;;;;;;;-6.15;100.00;98410.66;102387;1310;69333;-71
2021/12/28 01:17:59;;;;;;;71.50;35.50;;;;;;;-6.15;100.00;98407.73;102430;1311;72860;-71
2021/12/28 01:20:26;;;;;;;72.20;34.20;;;;;;;-6.16;100.00;98407.73;102291;1316;61418;-73
2021/12/28 01:22:53;;;;;;;72.10;36.90;;;;;;;-6.16;100.00;98405.66;102319;1310;61419;-72
2021/12/28 01:25:22;;;;;;;65.30;36.20;;;;;;;-6.17;100.00;98407.05;102332;1313;75678;-72
2021/12/28 01:27:49;;;;;;;66.30;35.90;;;;;;;-6.18;100.00;98403.61;101862;1317;69628;-72
2021/12/28 01:30:19;;;;;;;70.20;35.20;;;;;;;-6.19;100.00;98393.75;102306;1316;73260;-72
2021/12/28 01:32:47;;;;;;;67.80;35.00;;;;;;;-6.20;100.00;98390.65;102372;1311;61433;-73
2021/12/28 01:35:15;;;;;;;65.20;35.10;;;;;;;-6.20;100.00;98388.76;102301;1310;61450;-71
2021/12/28 01:37:43;;;;;;;69.00;35.10;;;;;;;-6.21;100.00;98381.16;102369;1310;75335;-71
2021/12/28 01:40:13;;;;;;;73.60;38.60;;;;;;;-6.22;100.00;98378.23;102328;1310;69405;-71
2021/12/28 01:43:17;;;;;;;72.20;37.90;;;;;;;-6.22;100.00;98374.25;102301;1316;73349;-71
2021/12/28 01:45:51;;;;;;;74.20;39.60;;;;;;;-6.22;100.00;98373.04;101612;1319;61495;-72
2021/12/28 01:48:25;;;;;;;72.10;35.10;;;;;;;-6.23;100.00;98368.73;101645;1318;61998;-72
2021/12/28 01:50:56;;;;;;;72.90;36.80;;;;;;;-6.21;100.00;98363.17;101625;1319;75280;-71
2021/12/28 01:53:24;;;;;;;69.00;34.10;;;;;;;-6.19;100.00;98363.34;101723;1319;70516;-71
2021/12/28 01:55:54;;;;;;;69.10;32.30;;;;;;;-6.18;100.00;98366.09;101749;1319;73267;-72
2021/12/28 01:58:21;;;;;;;63.80;34.40;;;;;;;-6.17;100.00;98363.84;101639;1325;61346;-73
2021/12/28 02:00:49;;;;;;;68.10;34.40;;;;;;;-6.17;100.00;98357.60;101417;1321;61360;-73
2021/12/28 02:03:19;;;;;;;60.20;32.20;;;;;;;-6.16;100.00;98362.79;101632;1319;76508;-71
2021/12/28 02:05:46;;;;;;;69.90;35.00;;;;;;;-6.15;100.00;98366.92;101651;1322;69608;-71
2021/12/28 02:08:14;;;;;;;68.20;36.00;;;;;;;-6.12;100.00;98363.61;101593;1326;73545;-72
2021/12/28 02:10:43;;;;;;;74.30;36.00;;;;;;;-6.11;100.00;98363.59;101590;1319;61436;-71
2021/12/28 02:13:10;;;;;;;68.00;34.20;;;;;;;-6.11;100.00;98363.77;101727;1325;62210;-72
2021/12/28 02:15:37;;;;;;;70.90;33.50;;;;;;;-6.10;100.00;98362.72;101388;1322;76198;-72
2021/12/28 02:18:07;;;;;;;69.30;35.60;;;;;;;-6.09;100.00;98368.06;101586;1319;69246;-72
2021/12/28 02:20:34;;;;;;;70.10;35.90;;;;;;;-6.07;100.00;98365.11;101600;1319;73860;-73
2021/12/28 02:23:01;;;;;;;73.70;35.00;;;;;;;-6.05;100.00;98364.56;102381;1317;61316;-73
2021/12/28 02:25:27;;;;;;;67.60;33.00;;;;;;;-6.04;100.00;98366.98;102369;1316;61330;-72
2021/12/28 02:27:55;;;;;;;74.20;37.80;;;;;;;-6.03;100.00;98360.22;102456;1311;75291;-72
2021/12/28 02:30:22;;;;;;;71.30;35.50;;;;;;;-6.02;100.00;98357.27;102469;1316;68623;-72
2021/12/28 02:32:50;;;;;;;73.20;36.30;;;;;;;-6.00;100.00;98355.52;102381;1310;74314;-72
2021/12/28 02:35:19;;;;;;;68.00;31.70;;;;;;;-5.99;100.00;98352.91;102292;1314;61422;-72
2021/12/28 02:37:47;;;;;;;72.30;37.30;;;;;;;-5.98;100.00;98349.96;102324;1310;62081;-72
2021/12/28 02:40:16;;;;;;;66.90;34.10;;;;;;;-5.98;100.00;98353.08;102317;1310;73637;-72
2021/12/28 02:42:43;;;;;;;70.20;33.60;;;;;;;-5.97;100.00;98349.61;102482;1310;68846;-73
2021/12/28 02:45:18;;;;;;;72.50;36.90;;;;;;;-5.94;100.00;98351.14;102308;1310;73313;-73
2021/12/28 02:47:46;;;;;;;69.80;34.60;;;;;;;-5.93;100.00;98353.02;102308;1310;61352;-72
2021/12/28 02:50:17;;;;;;;72.20;35.00;;;;;;;-5.92;100.00;98353.67;102364;1310;61438;-73
2021/12/28 02:52:43;;;;;;;61.60;32.20;;;;;;;-5.92;100.00;98350.22;102079;1316;76204;-72
2021/12/28 02:55:15;;;;;;;65.50;34.50;;;;;;;-5.91;100.00;98347.95;102630;1314;70306;-72
2021/12/28 02:57:54;;;;;;;63.60;33.00;;;;;;;-5.90;100.00;98346.90;103107;1310;74289;-74
2021/12/28 03:00:44;;;;;;;72.30;35.60;;;;;;;-5.89;100.00;98337.56;103173;1316;61281;-71
2021/12/28 03:03:19;;;;;;;69.60;35.40;;;;;;;-5.88;100.00;98335.81;102512;1313;61324;-71
2021/12/28 03:05:48;;;;;;;65.70;33.20;;;;;;;-5.88;100.00;98337.88;102454;1314;75785;-70
2021/12/28 03:08:17;;;;;;;68.00;36.90;;;;;;;-5.86;100.00;98331.80;102577;1316;69782;-70
2021/12/28 03:10:45;;;;;;;65.30;32.10;;;;;;;-5.83;100.00;98324.16;102422;1316;73264;-71
2021/12/28 03:13:18;;;;;;;66.90;34.20;;;;;;;-5.82;100.00;98319.13;102401;1310;61396;-71
2021/12/28 03:15:45;;;;;;;70.30;35.80;;;;;;;-5.80;100.00;98323.77;102415;1310;61302;-72
2021/12/28 03:18:12;;;;;;;73.40;36.80;;;;;;;-5.79;100.00;98325.33;102297;1310;75232;-70
2021/12/28 03:20:39;;;;;;;73.10;36.50;;;;;;;-5.78;100.00;98326.86;102284;1316;69478;-71
2021/12/28 03:23:05;;;;;;;68.30;35.60;;;;;;;-5.77;100.00;98322.01;102318;1310;74579;-71
2021/12/28 03:25:32;;;;;;;72.50;35.80;;;;;;;-5.76;100.00;98316.45;102289;1311;61267;-71
2021/12/28 03:28:00;;;;;;;66.70;32.70;;;;;;;-5.76;100.00;98309.72;102346;1316;62089;-73
2021/12/28 03:30:27;;;;;;;64.30;34.50;;;;;;;-5.76;100.00;98317.16;102367;1310;74924;-72
2021/12/28 03:32:55;;;;;;;73.10;36.80;;;;;;;-5.76;100.00;98315.77;102442;1310;69218;-71
2021/12/28 03:35:21;;;;;;;66.30;36.20;;;;;;;-5.75;100.00;98314.55;102338;1316;72610;-72
2021/12/28 03:37:48;;;;;;;72.70;38.60;;;;;;;-5.74;100.00;98308.13;102382;1316;61331;-73
2021/12/28 03:40:16;;;;;;;65.30;34.70;;;;;;;-5.71;100.00;98311.73;102367;1318;61365;-73
2021/12/28 03:42:43;;;;;;;68.50;37.60;;;;;;;-5.70;100.00;98313.96;102362;1317;75432;-72
2021/12/28 03:45:12;;;;;;;71.70;36.70;;;;;;;-5.70;100.00;98311.54;102123;1317;67724;-73
2021/12/28 03:47:39;;;;;;;63.90;33.70;;;;;;;-5.69;100.00;98308.93;102028;1316;73606;-72
2021/12/28 03:50:08;;;;;;;74.30;35.70;;;;;;;-5.70;100.00;98308.43;102380;1310;61345;-73
2021/12/28 03:52:36;;;;;;;71.20;35.60;;;;;;;-5.72;100.00;98307.59;102110;1316;61205;-72
2021/12/28 03:55:04;;;;;;;78.60;38.10;;;;;;;-5.70;100.00;98315.52;102335;1316;76257;-73
2021/12/28 03:57:32;;;;;;;70.30;37.10;;;;;;;-5.69;100.00;98324.34;102435;1316;70505;-71
2021/12/28 03:59:58;;;;;;;75.30;38.50;;;;;;;-5.69;100.00;98324.84;102407;1310;73667;-72
2021/12/28 04:02:25;;;;;;;69.60;35.90;;;;;;;-5.68;100.00;98326.92;102422;1316;61461;-73
2021/12/28 04:04:52;;;;;;;69.20;36.50;;;;;;;-5.67;100.00;98316.87;102486;1316;61917;-71
2021/12/28 04:07:20;;;;;;;71.30;40.30;;;;;;;-5.67;100.00;98322.56;102475;1314;75566;-73
2021/12/28 04:12:18;;;;;;;68.50;36.80;;;;;;;-5.63;100.00;98323.56;102484;1316;73816;-73
2021/12/28 04:14:45;;;;;;;78.10;42.50;;;;;;;-5.61;100.00;98319.91;102066;1317;61435;-74
2021/12/28 04:17:12;;;;;;;64.60;36.30;;;;;;;-5.60;100.00;98318.85;102109;1313;62245;-72
2021/12/28 04:19:39;;;;;;;73.10;38.10;;;;;;;-5.58;100.00;98320.20;102471;1316;76491;-72
2021/12/28 04:22:06;;;;;;;75.00;39.30;;;;;;;-5.57;100.00;98322.10;102542;1317;67363;-72
2021/12/28 04:24:33;;;;;;;75.60;38.60;;;;;;;-5.57;100.00;98326.95;101943;1317;1003633;-71
2021/12/28 04:27:00;;;;;;;64.20;35.50;;;;;;;-5.58;100.00;98327.82;102516;1317;61464;-73
2021/12/28 04:29:26;;;;;;;70.50;37.80;;;;;;;-5.59;100.00;98333.36;102466;1316;61313;-70
2021/12/28 04:31:53;;;;;;;74.30;38.30;;;;;;;-5.59;100.00;98334.94;102411;1317;75811;-70
2021/12/28 04:34:20;;;;;;;70.40;39.80;;;;;;;-5.59;100.00;98339.07;102481;1316;69218;-70
2021/12/28 04:36:47;;;;;;;68.30;36.60;;;;;;;-5.58;100.00;98338.20;102440;1310;73672;-71
2021/12/28 04:39:13;;;;;;;68.30;37.00;;;;;;;-5.58;100.00;98333.18;102501;1317;61441;-72
2021/12/28 04:41:40;;;;;;;68.40;36.10;;;;;;;-5.57;100.00;98331.44;102484;1316;62003;-71
2021/12/28 04:44:09;;;;;;;67.30;37.10;;;;;;;-5.56;100.00;98329.35;102489;1316;74229;-71
2021/12/28 04:46:36;;;;;;;75.20;37.40;;;;;;;-5.57;100.00;98327.80;102455;1317;68962;-73
2021/12/28 04:49:04;;;;;;;64.70;34.80;;;;;;;-5.57;100.00;98327.29;102326;1316;74721;-73
2021/12/28 04:51:30;;;;;;;63.60;34.40;;;;;;;-5.57;100.00;98327.98;101896;1316;61371;-72
2021/12/28 04:53:59;;;;;;;66.60;36.80;;;;;;;-5.58;100.00;98325.23;102316;1317;61293;-72
2021/12/28 04:56:26;;;;;;;77.90;40.50;;;;;;;-5.59;100.00;98327.83;102398;1316;75489;-71
2021/12/28 04:58:52;;;;;;;70.80;38.90;;;;;;;-5.60;100.00;98330.11;102092;1316;69339;-71
2021/12/28 05:01:19;;;;;;;71.70;42.20;;;;;;;-5.60;100.00;98331.48;102317;1318;73786;-71
2021/12/28 05:03:45;;;;;;;71.10;39.80;;;;;;;-5.61;100.00;98334.27;102110;1316;61454;-71
2021/12/28 05:06:14;;;;;;;66.10;35.80;;;;;;;-5.61;100.00;98326.14;102319;1317;61613;-71
2021/12/28 05:08:41;;;;;;;67.50;36.90;;;;;;;-5.60;100.00;98331.67;102259;1316;74181;-71
2021/12/28 05:11:08;;;;;;;63.80;35.80;;;;;;;-5.62;100.00;98334.45;101939;1317;70750;-72
2021/12/28 05:13:34;;;;;;;63.80;35.80;;;;;;;-5.60;100.00;98334.95;102322;1316;73526;-70
2021/12/28 05:16:01;;;;;;;59.40;34.20;;;;;;;-5.59;100.00;98333.72;102262;1313;61928;-71
2021/12/28 05:18:27;;;;;;;60.50;36.00;;;;;;;-5.59;100.00;98332.17;102321;1316;61321;-71
2021/12/28 05:20:54;;;;;;;58.30;33.20;;;;;;;-5.60;100.00;98328.73;102304;1316;74356;-71
2021/12/28 05:23:21;;;;;;;66.10;33.70;;;;;;;-5.60;100.00;98328.90;102355;1310;61321;-72
2021/12/28 05:25:47;;;;;;;62.90;34.50;;;;;;;-5.62;100.00;98327.02;102275;1317;61331;-71
2021/12/28 05:28:14;;;;;;;64.50;34.70;;;;;;;-5.63;100.00;98321.67;101555;1313;1003043;-71
2021/12/28 05:30:41;;;;;;;62.40;35.20;;;;;;;-5.65;100.00;98325.33;102310;1319;61283;-71
2021/12/28 05:33:08;;;;;;;57.50;32.90;;;;;;;-5.66;100.00;98321.36;102314;1316;76443;-73
2021/12/28 05:35:34;;;;;;;63.40;34.30;;;;;;;-5.67;100.00;98321.36;102154;1316;68734;-72
2021/12/28 05:38:01;;;;;;;57.90;33.70;;;;;;;-5.68;100.00;98317.92;102346;1316;73204;-72
2021/12/28 05:40:28;;;;;;;63.30;34.20;;;;;;;-5.69;100.00;98315.16;102310;1316;61580;-72
2021/12/28 05:42:55;;;;;;;57.60;34.10;;;;;;;-5.70;100.00;98314.13;102399;1317;61235;-71
2021/12/28 05:45:21;;;;;;;67.80;34.70;;;;;;;-5.71;100.00;98313.63;102310;1310;75192;-73
2021/12/28 05:47:48;;;;;;;62.50;33.00;;;;;;;-5.71;100.00;98311.39;102378;1316;61359;-72
2021/12/28 05:50:15;;;;;;;68.70;36.10;;;;;;;-5.72;100.00;98310.35;102272;1313;74455;-72
2021/12/28 05:52:42;;;;;;;65.90;36.10;;;;;;;-5.71;100.00;98307.58;102318;1316;61340;-71
2021/12/28 05:55:09;;;;;;;62.00;34.10;;;;;;;-5.70;100.00;98312.94;102367;1316;61899;-72
2021/12/28 05:57:36;;;;;;;77.00;42.20;;;;;;;-5.69;100.00;98318.10;102310;1316;74658;-72
2021/12/28 06:00:07;;;;;;;71.60;39.50;;;;;;;-5.68;100.00;98319.14;101884;1316;69490;-72
2021/12/28 06:02:34;;;;;;;114.00;62.60;;;;;;;-5.68;100.00;98320.18;102011;1317;73249;-72
2021/12/28 06:05:00;;;;;;;68.80;40.50;;;;;;;-5.68;100.00;98315.33;102344;1316;61319;-72
2021/12/28 06:07:27;;;;;;;58.70;32.00;;;;;;;-5.67;100.00;98310.11;102321;1317;61385;-70
2021/12/28 06:09:55;;;;;;;60.30;33.60;;;;;;;-5.67;100.00;98311.16;102289;1314;75256;-71
2021/12/28 06:12:23;;;;;;;63.80;33.80;;;;;;;-5.66;100.00;98316.86;102278;1317;69345;-70
2021/12/28 06:14:51;;;;;;;62.10;34.30;;;;;;;-5.65;100.00;98317.36;102252;1316;73449;-71
2021/12/28 06:17:18;;;;;;;62.20;33.20;;;;;;;-5.65;100.00;98316.31;101926;1317;61496;-72
2021/12/28 06:19:44;;;;;;;57.70;32.50;;;;;;;-5.65;100.00;98312.52;102283;1317;62233;-72
2021/12/28 06:22:11;;;;;;;44.20;26.20;;;;;;;-5.67;100.00;98309.95;102301;1314;61444;-72
2021/12/28 06:24:37;;;;;;;62.10;33.50;;;;;;;-5.68;100.00;98304.08;102272;1310;61264;-72
2021/12/28 06:27:05;;;;;;;65.30;35.40;;;;;;;-5.68;100.00;98305.81;102254;1316;73442;-72
2021/12/28 06:29:32;;;;;;;68.40;38.00;;;;;;;-5.67;100.00;98306.48;102267;1310;61385;-72
2021/12/28 06:31:58;;;;;;;62.00;34.30;;;;;;;-5.68;100.00;98303.57;102301;1310;61847;-72
2021/12/28 06:34:25;;;;;;;62.80;34.80;;;;;;;-5.67;100.00;98305.97;102307;1317;76247;-72
2021/12/28 06:36:52;;;;;;;59.00;33.80;;;;;;;-5.66;100.00;98310.11;102283;1310;69413;-71
2021/12/28 06:39:18;;;;;;;60.60;34.40;;;;;;;-5.66;100.00;98315.65;101919;1317;73784;-72
2021/12/28 06:41:45;;;;;;;59.00;34.70;;;;;;;-5.64;100.00;98314.59;102334;1318;61351;-72
2021/12/28 06:44:11;;;;;;;64.30;34.80;;;;;;;-5.62;100.00;98317.85;102352;1317;61338;-71
2021/12/28 06:46:38;;;;;;;63.00;33.60;;;;;;;-5.59;100.00;98319.00;102360;1316;76239;-71
2021/12/28 06:49:07;;;;;;;61.60;32.60;;;;;;;-5.57;100.00;98319.33;102253;1317;69595;-71
2021/12/28 06:51:34;;;;;;;55.00;30.70;;;;;;;-5.54;100.00;98328.11;102435;1317;73794;-73
2021/12/28 06:54:01;;;;;;;58.80;34.20;;;;;;;-5.52;100.00;98330.17;102391;1310;61324;-73
2021/12/28 06:56:27;;;;;;;62.70;35.30;;;;;;;-5.50;100.00;98327.88;102287;1316;62215;-72
2021/12/28 06:58:54;;;;;;;63.50;35.90;;;;;;;-5.47;100.00;98327.52;102184;1314;75597;-73
2021/12/28 07:01:22;;;;;;;59.60;34.20;;;;;;;-5.44;100.00;98328.33;102201;1317;69665;-71
2021/12/28 07:03:50;;;;;;;59.80;36.10;;;;;;;-5.42;100.00;98324.66;102281;1316;72582;-72
2021/12/28 07:06:18;;;;;;;57.80;32.80;;;;;;;-5.39;100.00;98326.19;102304;1316;61396;-72
2021/12/28 07:08:45;;;;;;;54.10;31.20;;;;;;;-5.36;100.00;98325.11;102333;1313;61421;-72
2021/12/28 07:11:11;;;;;;;54.60;31.60;;;;;;;-5.34;100.00;98331.48;102216;1316;75026;-72
2021/12/28 07:13:38;;;;;;;63.80;33.90;;;;;;;-5.33;100.00;98330.25;101525;1317;1003619;-71
2021/12/28 07:16:04;;;;;;;58.50;33.10;;;;;;;-5.30;100.00;98333.33;101943;1319;61407;-72
2021/12/28 07:18:31;;;;;;;63.00;36.10;;;;;;;-5.26;100.00;98331.91;102224;1317;61410;-71
2021/12/28 07:20:58;;;;;;;56.80;33.00;;;;;;;-5.23;100.00;98330.64;102253;1314;61512;-72
2021/12/28 07:23:25;;;;;;;52.30;31.20;;;;;;;-5.19;100.00;98329.37;102290;1314;73397;-72
2021/12/28 07:25:53;;;;;;;71.80;39.70;;;;;;;-5.17;100.00;98325.87;102210;1320;68844;-73
2021/12/28 07:28:22;;;;;;;91.70;47.70;;;;;;;-5.11;100.00;98329.41;102348;1313;73199;-73
2021/12/28 07:30:49;;;;;;;71.20;39.20;;;;;;;-5.05;100.00;98329.49;102102;1316;61287;-72
2021/12/28 07:33:15;;;;;;;60.30;33.80;;;;;;;-5.00;100.00;98327.87;102208;1313;61661;-73
2021/12/28 07:35:42;;;;;;;58.60;34.60;;;;;;;-4.99;100.00;98330.80;102414;1314;72267;-74
2021/12/28 07:38:09;;;;;;;55.00;32.70;;;;;;;-4.95;100.00;98330.73;102279;1314;69627;-71
2021/12/28 07:40:36;;;;;;;53.90;30.70;;;;;;;-4.93;100.00;98326.38;102253;1314;72877;-72
2021/12/28 07:43:03;;;;;;;53.30;31.00;;;;;;;-4.91;100.00;98326.34;101910;1317;61367;-71
2021/12/28 07:45:30;;;;;;;45.90;29.10;;;;;;;-4.88;100.00;98331.65;102283;1317;61384;-72
2021/12/28 07:47:57;;;;;;;53.80;32.60;;;;;;;-4.82;100.00;98338.15;102299;1317;76507;-72
2021/12/28 07:50:23;;;;;;;57.20;33.50;;;;;;;-4.80;100.00;98331.38;102355;1317;69708;-75
2021/12/28 07:52:52;;;;;;;52.10;32.30;;;;;;;-4.78;100.00;98322.33;102357;1314;74310;-73
2021/12/28 07:55:18;;;;;;;51.20;31.00;;;;;;;-4.75;100.00;98323.14;102615;1316;61360;-71
2021/12/28 07:57:45;;;;;;;50.10;31.10;;;;;;;-4.71;100.00;98325.84;102773;1313;61939;-72
2021/12/28 08:00:15;;;;;;;57.90;36.00;;;;;;;-4.65;100.00;98330.95;101049;1317;1003889;-73
2021/12/28 08:02:43;;;;;;;54.90;32.10;;;;;;;-4.55;100.00;98330.10;102322;1313;70714;-71
2021/12/28 08:05:12;;;;;;;48.60;30.30;;;;;;;-4.46;100.00;98327.15;102492;1317;72778;-71
2021/12/28 08:07:39;;;;;;;48.80;29.50;;;;;;;-4.40;100.00;98325.31;102308;1313;61377;-73
2021/12/28 08:10:07;;;;;;;48.40;29.40;;;;;;;-4.38;100.00;98324.41;102324;1314;61334;-72
2021/12/28 08:12:34;;;;;;;39.30;24.40;;;;;;;-4.41;100.00;98323.61;102200;1314;75871;-73
2021/12/28 08:15:02;;;;;;;47.20;29.70;;;;;;;-4.41;100.00;98321.16;102249;1313;69577;-71
2021/12/28 08:17:30;;;;;;;49.90;29.70;;;;;;;-4.41;100.00;98325.50;102324;1313;72672;-72
2021/12/28 08:19:57;;;;;;;53.50;30.90;;;;;;;-4.45;100.00;98326.09;102165;1313;61444;-75
2021/12/28 08:22:24;;;;;;;49.40;29.70;;;;;;;-4.45;100.00;98324.36;101921;1317;61981;-74
2021/12/28 08:24:50;;;;;;;52.90;30.90;;;;;;;-4.42;100.00;98330.38;102330;1314;75647;-72
2021/12/28 08:27:17;;;;;;;51.60;31.40;;;;;;;-4.39;100.00;98324.96;100876;1314;1003465;-72
2021/12/28 08:29:44;;;;;;;47.30;29.40;;;;;;;-4.35;100.00;98315.88;101895;1317;74213;-73
2021/12/28 08:32:10;;;;;;;47.90;30.00;;;;;;;-4.33;100.00;98306.64;101910;1317;61383;-72
2021/12/28 08:34:37;;;;;;;48.80;29.50;;;;;;;-4.34;100.00;98307.02;102322;1314;61299;-72
2021/12/28 08:37:03;;;;;;;55.30;33.90;;;;;;;-4.29;100.00;98306.39;101930;1316;61393;-72
2021/12/28 08:39:31;;;;;;;47.30;30.60;;;;;;;-4.17;100.00;98308.79;102310;1314;70503;-74
2021/12/28 08:41:57;;;;;;;61.20;37.70;;;;;;;-4.08;100.00;98314.16;102268;1313;73356;-73
2021/12/28 08:44:27;;;;;;;57.60;35.50;;;;;;;-4.02;100.00;98312.81;102240;1313;61319;-73
2021/12/28 08:46:55;;;;;;;72.90;48.90;;;;;;;-3.90;100.00;98310.15;102287;1316;61314;-73
2021/12/28 08:49:23;;;;;;;61.00;38.60;;;;;;;-3.80;100.00;98314.46;102328;1313;76526;-73
2021/12/28 08:51:51;;;;;;;48.90;32.40;;;;;;;-3.77;100.00;98313.88;102417;1313;69318;-72
2021/12/28 08:54:17;;;;;;;54.30;35.00;;;;;;;-3.78;100.00;98315.47;102140;1313;74263;-72
2021/12/28 08:56:45;;;;;;;52.70;33.40;;;;;;;-3.72;100.00;98316.73;102305;1314;61421;-74
2021/12/28 08:59:13;;;;;;;52.70;33.40;;;;;;;-3.66;100.00;98310.53;98754;1314;5074578;-73
2021/12/28 09:01:40;;;;;;;55.60;41.10;;;;;;;-3.65;100.00;98304.80;102134;1314;76356;-73
2021/12/28 09:04:07;;;;;;;56.50;35.70;;;;;;;-3.51;100.00;98297.55;102303;1316;70737;-73
2021/12/28 09:06:34;;;;;;;54.00;35.70;;;;;;;-3.42;100.00;98290.58;102212;1314;73245;-73
2021/12/28 09:09:00;;;;;;;49.00;30.90;;;;;;;-3.36;100.00;98287.48;102211;1313;61395;-74
2021/12/28 09:11:27;;;;;;;46.10;29.40;;;;;;;-3.39;100.00;98287.88;101964;1317;61674;-73
2021/12/28 09:13:53;;;;;;;57.60;35.60;;;;;;;-3.41;100.00;98273.88;102266;1318;61291;-73
2021/12/28 09:16:20;;;;;;;58.60;39.80;;;;;;;-3.37;100.00;98271.34;102281;1309;70569;-78
2021/12/28 09:18:46;;;;;;;52.50;33.10;;;;;;;-3.27;100.00;98269.74;102323;1310;73906;-73
2021/12/28 09:21:13;;;;;;;46.40;30.90;;;;;;;-3.24;100.00;98267.05;101590;1317;1003051;-75
2021/12/28 09:23:39;;;;;;;54.70;32.80;;;;;;;-3.22;100.00;98252.93;102343;1312;61413;-77
2021/12/28 09:26:06;;;;;;;48.80;31.40;;;;;;;-3.19;100.00;98250.61;102427;1315;61411;-73
2021/12/28 09:28:33;;;;;;;56.70;33.40;;;;;;;-3.17;100.00;98247.26;102412;1310;61345;-74
2021/12/28 09:31:00;;;;;;;49.40;31.90;;;;;;;-3.17;100.00;98254.56;102165;1313;61409;-75
2021/12/28 09:33:26;;;;;;;53.60;35.10;;;;;;;-3.17;99.97;98258.04;101970;1317;61633;-73
2021/12/28 09:35:54;;;;;;;48.40;31.70;;;;;;;-3.17;99.95;98258.55;102329;1314;61286;-74
2021/12/28 09:38:22;;;;;;;51.70;32.60;;;;;;;-3.19;99.91;98256.69;102453;1311;76269;-75
2021/12/28 09:40:50;;;;;;;52.90;32.40;;;;;;;-3.17;100.00;98264.12;101990;1317;70382;-74
2021/12/28 09:43:18;;;;;;;50.80;30.90;;;;;;;-3.09;100.00;98259.42;102170;1309;73303;-74
2021/12/28 09:45:45;;;;;;;51.80;31.80;;;;;;;-3.01;99.91;98254.88;102306;1310;61343;-75
2021/12/28 09:48:12;;;;;;;55.50;36.20;;;;;;;-3.04;99.68;98252.52;102380;1310;62089;-73
2021/12/28 09:50:41;;;;;;;53.90;33.40;;;;;;;-3.01;99.92;98249.66;102333;1310;76167;-73
2021/12/28 09:53:10;;;;;;;52.20;32.40;;;;;;;-3.00;99.74;98244.25;101685;1310;1015953;-73
2021/12/28 09:55:37;;;;;;;50.80;31.70;;;;;;;-3.01;99.66;98240.11;102265;1310;73400;-74
2021/12/28 09:58:04;;;;;;;48.50;32.20;;;;;;;-2.98;99.82;98235.52;102458;1316;61351;-75
2021/12/28 10:00:31;;;;;;;52.30;32.70;;;;;;;-2.96;99.61;98227.13;102370;1310;61395;-74
2021/12/28 10:02:58;;;;;;;48.60;31.10;;;;;;;-2.96;99.52;98219.83;102450;1315;74941;-73
2021/12/28 10:05:26;;;;;;;48.50;29.70;;;;;;;-3.00;99.13;98217.15;102431;1316;70523;-74
2021/12/28 10:07:58;;;;;;;48.20;32.10;;;;;;;-3.05;99.24;98214.48;102524;1317;73387;-73
2021/12/28 10:10:27;;;;;;;49.50;30.70;;;;;;;-3.01;99.26;98221.15;102324;1310;61515;-73
2021/12/28 10:12:57;;;;;;;46.60;30.80;;;;;;;-3.07;98.75;98216.79;102035;1313;61395;-75
2021/12/28 10:15:25;;;;;;;;;;;;;;;-3.17;98.81;98218.95;102423;1310;76426;-72
2021/12/28 10:17:55;;;;;;;48.50;29.50;;;;;;;-3.25;99.05;98210.29;102322;1314;69491;-74
2021/12/28 10:20:29;;;;;;;47.90;29.40;;;;;;;-3.25;99.11;98203.17;102062;1314;73177;-75
2021/12/28 10:22:59;;;;;;;44.30;29.50;;;;;;;-3.25;99.14;98194.83;102265;1311;61301;-75
2021/12/28 10:25:28;;;;;;;;;;;;;;;-3.29;98.99;98183.64;102352;1310;61311;-74
2021/12/28 10:28:03;;;;;;;51.90;30.80;;;;;;;-3.35;98.98;98174.92;102354;1314;76557;-74
2021/12/28 10:30:29;;;;;;;50.60;32.10;;;;;;;-3.39;99.06;98173.43;102362;1310;67451;-75
2021/12/28 10:33:17;;;;;;;51.70;32.60;;;;;;;-3.41;99.23;98175.59;102294;1311;61321;-73
2021/12/28 10:35:51;;;;;;;48.90;31.00;;;;;;;-3.38;99.20;98180.19;102302;1310;61735;-74
2021/12/28 10:38:26;;;;;;;51.50;31.60;;;;;;;-3.37;99.18;98174.10;102341;1310;61210;-71
2021/12/28 10:41:14;;;;;;;54.20;31.70;;;;;;;-3.35;99.04;98162.76;102008;1317;73306;-73
2021/12/28 10:43:45;;;;;;;45.70;30.40;;;;;;;-3.33;99.02;98165.32;101927;1313;69770;-74
2021/12/28 10:46:17;;;;;;;50.30;31.20;;;;;;;-3.31;98.98;98159.03;100478;1313;1003829;-75
2021/12/28 10:48:57;;;;;;;46.40;29.60;;;;;;;-3.27;98.82;98153.36;102006;1316;61377;-76
2021/12/28 10:51:30;;;;;;;50.60;33.00;;;;;;;-3.25;98.54;98150.17;101959;1317;61403;-73
2021/12/28 10:56:40;;;;;;;46.30;28.30;;;;;;;-3.15;98.55;98159.13;101831;1320;70290;-74
2021/12/28 10:59:10;;;;;;;48.90;30.10;;;;;;;-3.08;98.36;98162.80;101686;1322;72301;-73
2021/12/28 11:01:38;;;;;;;;;;;;;;;-3.04;98.46;98157.81;101934;1316;61513;-74
2021/12/28 11:04:09;;;;;;;43.40;29.00;;;;;;;-2.95;98.62;98143.52;101923;1317;61320;-73
2021/12/28 11:06:55;;;;;;;47.20;28.50;;;;;;;-2.85;98.08;98140.45;101927;1316;73601;-73
2021/12/28 11:09:24;;;;;;;43.80;29.90;;;;;;;-2.79;97.51;98142.20;101364;1322;69295;-73
2021/12/28 11:11:53;;;;;;;48.90;31.40;;;;;;;-2.76;97.65;98138.81;101475;1321;74647;-73